»·PEaware :: N659SW KSNA-KCMA

N659SW :: KSNA-KCMA

FLIGHT INFORMATION

Flight Status: Arrived
Operator: Privately registered:
United States
More flights under this callsign
Pilot: Anonymous 10623 (10623)
Aircraft: PIPER PA-28 CHEROKEE ARCHER
(P28A)
More flights by this aircraft type
Origin: KSNA John Wayne-Orange Co
United States
Destination: KCMA Camarillo
United States
More flights between these airports :: More routes between these airports
Route: SLI V23 POPPR SMO125 SMO VNY
File this flight plan on PilotEdge
Remarks: TEC route CSTP24
Altitude:
(Current/Filed)
4,000ft
Speed:
(Current/Filed)
100kts
Departed: 05-Apr-21 10:43 AM
Arrived: 05-Apr-21 11:27 AM
Distance/Time
Traveled:
69nm/0:43
Distance/Time
To Go:
Arrived

Flight Plot

Page will automatically refresh every two minutes.


Map Options




Map Legend


Flown Route
Filed Route
Departure Airport
Arrival Airport
Navaid (VOR, NDB)
Fix

Horizontal Profiles

Position Reports

Time Latitude Longitude Heading Altitude Ground
Speed
05-Apr-21 10:24 33.672219 -117.873701 206 59ft 0kts
05-Apr-21 10:25 33.672218 -117.873701 206 59ft 0kts
05-Apr-21 10:26 33.672218 -117.873701 206 59ft 0kts
05-Apr-21 10:27 33.672218 -117.873701 206 59ft 0kts
05-Apr-21 10:28 33.672218 -117.873701 206 59ft 0kts
05-Apr-21 10:29 33.672218 -117.873701 206 59ft 0kts
05-Apr-21 10:30 33.672218 -117.873701 206 59ft 0kts
05-Apr-21 10:31 33.672218 -117.873701 206 59ft 0kts
05-Apr-21 10:32 33.672218 -117.873701 206 59ft 0kts
05-Apr-21 10:33 33.671894 -117.873263 118 59ft 0kts
05-Apr-21 10:34 33.671956 -117.872700 39 59ft 10kts
05-Apr-21 10:35 33.675619 -117.870372 27 59ft 14kts
05-Apr-21 10:36 33.676592 -117.869416 50 59ft 0kts
05-Apr-21 10:37 33.676591 -117.869416 50 59ft 0kts
05-Apr-21 10:38 33.676591 -117.869416 50 59ft 0kts
05-Apr-21 10:39 33.676591 -117.869416 50 59ft 0kts
05-Apr-21 10:40 33.679188 -117.868164 26 59ft 13kts
05-Apr-21 10:41 33.681192 -117.866366 121 59ft 3kts
05-Apr-21 10:42 33.676728 -117.868228 208 112ft 80kts
05-Apr-21 10:43 33.658377 -117.889564 236 1326ft 101kts
05-Apr-21 10:44 33.642702 -117.921286 236 2329ft 118kts
05-Apr-21 10:45 33.631245 -117.952037 277 3552ft 98kts
05-Apr-21 10:46 33.635619 -117.988474 303 3991ft 115kts
05-Apr-21 10:47 33.655626 -118.016408 312 4000ft 104kts
05-Apr-21 10:48 33.675875 -118.041386 310 4093ft 109kts
05-Apr-21 10:49 33.693691 -118.071646 311 4070ft 108kts
05-Apr-21 10:50 33.712708 -118.099632 312 4070ft 107kts
05-Apr-21 10:51 33.731500 -118.126797 312 4070ft 107kts
05-Apr-21 10:52 33.750575 -118.154389 312 4070ft 107kts
05-Apr-21 10:53 33.769682 -118.182054 312 4070ft 107kts
05-Apr-21 10:54 33.788664 -118.209557 312 4070ft 107kts
05-Apr-21 10:55 33.807700 -118.237160 312 4070ft 107kts
05-Apr-21 10:56 33.826656 -118.264690 312 4070ft 107kts
05-Apr-21 10:57 33.845941 -118.291308 321 4070ft 106kts
05-Apr-21 10:58 33.868641 -118.314074 322 4070ft 106kts
05-Apr-21 10:59 33.891208 -118.336693 322 4070ft 105kts
05-Apr-21 11:00 33.913419 -118.358970 322 4069ft 106kts
05-Apr-21 11:01 33.936208 -118.381869 322 4069ft 106kts
05-Apr-21 11:02 33.959084 -118.404654 322 4068ft 106kts
05-Apr-21 11:03 33.981786 -118.427429 322 4067ft 106kts
05-Apr-21 11:04 34.004450 -118.450247 322 4067ft 106kts
05-Apr-21 11:05 34.032087 -118.460120 352 4067ft 105kts
05-Apr-21 11:06 34.061323 -118.464607 352 4066ft 105kts
05-Apr-21 11:07 34.090233 -118.470734 325 4058ft 106kts
05-Apr-21 11:08 34.106844 -118.500421 304 4068ft 107kts
05-Apr-21 11:09 34.117898 -118.521893 305 4064ft 107kts
05-Apr-21 11:10 34.133437 -118.552383 303 4064ft 106kts
05-Apr-21 11:11 34.149935 -118.581297 303 4105ft 104kts
05-Apr-21 11:12 34.167484 -118.612166 309 4037ft 120kts
05-Apr-21 11:13 34.185544 -118.647169 303 4036ft 124kts
05-Apr-21 11:15 34.203725 -118.683142 306 4018ft 122kts
05-Apr-21 11:16 34.222260 -118.716003 296 4019ft 115kts
05-Apr-21 11:17 34.229800 -118.752542 264 4017ft 108kts
05-Apr-21 11:18 34.231091 -118.791501 273 3994ft 126kts
05-Apr-21 11:19 34.228970 -118.833974 266 4057ft 131kts
05-Apr-21 11:20 34.226778 -118.879357 266 3371ft 136kts
05-Apr-21 11:21 34.224870 -118.921620 264 3009ft 116kts
05-Apr-21 11:22 34.223701 -118.957961 263 2368ft 101kts
05-Apr-21 11:23 34.219936 -118.988276 257 1872ft 87kts
05-Apr-21 11:24 34.217848 -119.018090 260 1400ft 92kts
05-Apr-21 11:25 34.215613 -119.045912 252 824ft 75kts
05-Apr-21 11:26 34.213651 -119.070999 264 354ft 70kts
05-Apr-21 11:27 34.213739 -119.091633 270 80ft 22kts
05-Apr-21 11:28 34.211768 -119.095539 140 80ft 12kts
05-Apr-21 11:29 34.211004 -119.091759 91 80ft 15kts
05-Apr-21 11:30 34.210471 -119.089989 95 80ft 0kts
05-Apr-21 11:31 34.210471 -119.089989 95 80ft 0kts

Navigation Log

Ident Type
Flight plan parsing failed, navigation log unavailable